Terminal Aerodrome Forecast
Issued by NWS

Home | Current Version | Previous Version | Text Only | Print | Product List | Glossary On
Versions: 1 2 3 4 5 6 7 8 9 10 11 12 13 14 15 16 17 18 19 20 21
000
FTUS43 KDLH 042352
TAFHYR
TAF
KHYR 042352Z 0500/0524 18008KT 6SM -SN BR OVC007
      TEMPO 0501/0505 3SM -SN BR OVC008
     FM050600 22007KT 5SM BR OVC008
     FM051100 20004KT P6SM BKN008
     FM051700 16006KT P6SM BKN015
     FM052200 16007KT P6SM VCSH OVC008=

USA.gov is the U.S. government's official web portal to all federal, state and local government web resources and services.